Time;durP1;ratioP1;P1;durP2;ratioP2;P2;SDS_P1;SDS_P2;PMS_P1;PMS_P2;Temp;Humidity;BMP_temperature;BMP_pressure;BME280_temperature;BME280_humidity;BME280_pressure;Samples;Min_cycle;Max_cycle;Signal;HPM_P1;HPM_P2
2023/12/11 00:01:13;;;;;;;2.55;0.90;;;;;;;;;;4932459;29;20082;-84
2023/12/11 00:03:38;;;;;;;1.58;0.80;;;;;;;;;;4909568;29;20480;-84
2023/12/11 00:06:03;;;;;;;1.30;0.80;;;;;;;;;;4929015;29;20114;-84
2023/12/11 00:08:29;;;;;;;2.55;1.00;;;;;;;;;;4910351;29;20354;-84
2023/12/11 00:10:54;;;;;;;2.05;1.08;;;;;;;;;;4905335;29;20024;-84
2023/12/11 00:13:19;;;;;;;3.85;1.23;;;;;;;;;;4921473;29;20032;-84
2023/12/11 00:15:44;;;;;;;3.70;1.15;;;;;;;;;;4926636;29;20087;-84
2023/12/11 00:18:10;;;;;;;2.72;1.38;;;;;;;;;;4924937;29;20478;-84
2023/12/11 00:20:35;;;;;;;2.00;1.33;;;;;;;;;;4930676;29;20027;-84
2023/12/11 00:23:00;;;;;;;6.35;1.50;;;;;;;;;;4931778;29;20038;-84
2023/12/11 00:25:28;;;;;;;3.40;1.67;;;;;;;;;;4901413;29;20048;-83
2023/12/11 00:27:53;;;;;;;8.80;1.70;;;;;;;;;;4908160;29;20389;-84
2023/12/11 00:30:19;;;;;;;3.33;1.30;;;;;;;;;;4911049;29;20107;-84
2023/12/11 00:32:44;;;;;;;3.85;1.77;;;;;;;;;;4907088;29;20290;-84
2023/12/11 00:35:09;;;;;;;2.27;1.10;;;;;;;;;;4922775;29;20477;-84
2023/12/11 00:37:34;;;;;;;3.92;1.30;;;;;;;;;;4909180;29;20774;-84
2023/12/11 00:40:00;;;;;;;2.30;1.48;;;;;;;;;;4923750;29;20017;-83
2023/12/11 00:42:25;;;;;;;1.47;1.20;;;;;;;;;;4913560;29;20020;-84
2023/12/11 00:44:50;;;;;;;4.57;1.52;;;;;;;;;;4926812;29;20402;-83
2023/12/11 00:47:15;;;;;;;6.53;1.80;;;;;;;;;;4915874;29;20020;-83
2023/12/11 00:49:41;;;;;;;3.15;1.30;;;;;;;;;;4923628;29;20285;-84
2023/12/11 00:52:06;;;;;;;4.28;1.60;;;;;;;;;;4909244;29;20028;-84
2023/12/11 00:54:31;;;;;;;3.80;1.80;;;;;;;;;;4915613;29;20060;-84
2023/12/11 00:56:56;;;;;;;3.10;1.63;;;;;;;;;;4915608;29;20103;-84
2023/12/11 00:59:22;;;;;;;2.97;1.83;;;;;;;;;;4909317;29;20415;-84
2023/12/11 01:01:48;;;;;;;4.50;1.60;;;;;;;;;;4914062;29;20319;-84
2023/12/11 01:04:13;;;;;;;4.95;1.63;;;;;;;;;;4905920;29;20267;-84
2023/12/11 01:06:38;;;;;;;2.92;1.60;;;;;;;;;;4927979;29;20121;-84
2023/12/11 01:09:04;;;;;;;2.73;1.73;;;;;;;;;;4915861;29;20036;-84
2023/12/11 01:11:29;;;;;;;2.25;1.55;;;;;;;;;;4903771;29;20327;-84
2023/12/11 01:13:54;;;;;;;4.90;2.17;;;;;;;;;;4911572;29;20484;-84
2023/12/11 01:16:20;;;;;;;2.97;1.80;;;;;;;;;;4910039;29;20030;-84
2023/12/11 01:18:45;;;;;;;9.40;1.88;;;;;;;;;;4912299;29;20326;-83
2023/12/11 01:21:11;;;;;;;3.13;1.60;;;;;;;;;;4915003;29;20020;-84
2023/12/11 01:23:36;;;;;;;4.70;2.00;;;;;;;;;;4923061;29;20303;-84
2023/12/11 01:26:01;;;;;;;4.30;2.13;;;;;;;;;;4902749;29;20274;-84
2023/12/11 01:28:26;;;;;;;4.72;1.70;;;;;;;;;;4914919;29;20040;-84
2023/12/11 01:30:52;;;;;;;3.20;1.53;;;;;;;;;;4908459;29;20027;-84
2023/12/11 01:33:17;;;;;;;2.87;1.53;;;;;;;;;;4913310;29;20318;-83
2023/12/11 01:35:42;;;;;;;4.73;1.93;;;;;;;;;;4908514;29;20270;-84
2023/12/11 01:38:07;;;;;;;4.97;1.85;;;;;;;;;;4908813;29;20826;-84
2023/12/11 01:40:33;;;;;;;7.30;1.83;;;;;;;;;;4912645;29;20640;-84
2023/12/11 01:43:16;;;;;;;3.30;1.30;;;;;;;;;;4903081;29;20016;-84
2023/12/11 01:45:42;;;;;;;3.63;1.85;;;;;;;;;;4927730;29;20270;-84
2023/12/11 01:48:08;;;;;;;2.80;1.45;;;;;;;;;;4910040;29;20079;-83
2023/12/11 01:50:33;;;;;;;4.32;1.90;;;;;;;;;;4898467;29;20028;-83
2023/12/11 01:52:59;;;;;;;3.70;1.70;;;;;;;;;;4930961;29;20032;-84
2023/12/11 01:55:24;;;;;;;3.35;1.58;;;;;;;;;;4916053;29;20429;-84
2023/12/11 01:57:49;;;;;;;2.78;1.77;;;;;;;;;;4899242;29;20111;-83
2023/12/11 02:00:15;;;;;;;7.77;1.57;;;;;;;;;;4897624;29;20054;-84
2023/12/11 02:02:40;;;;;;;1.77;1.42;;;;;;;;;;4908989;29;21055;-84
2023/12/11 02:05:05;;;;;;;6.07;1.90;;;;;;;;;;4893313;29;20025;-84
2023/12/11 02:07:31;;;;;;;4.03;1.90;;;;;;;;;;4913057;29;20392;-83
2023/12/11 02:09:56;;;;;;;2.83;1.70;;;;;;;;;;4921711;29;20035;-84
2023/12/11 02:12:21;;;;;;;2.63;1.80;;;;;;;;;;4914625;29;20036;-84
2023/12/11 02:14:46;;;;;;;1.77;1.48;;;;;;;;;;4907562;29;20303;-84
2023/12/11 02:17:12;;;;;;;5.43;1.97;;;;;;;;;;4912715;29;20096;-84
2023/12/11 02:19:38;;;;;;;3.13;1.67;;;;;;;;;;4909465;29;20267;-84
2023/12/11 02:22:03;;;;;;;7.18;2.00;;;;;;;;;;4914229;29;20017;-84
2023/12/11 02:24:32;;;;;;;4.95;1.70;;;;;;;;;;4908001;29;20029;-84
2023/12/11 02:26:57;;;;;;;2.83;1.35;;;;;;;;;;4914490;29;20023;-84
2023/12/11 02:29:24;;;;;;;1.33;1.05;;;;;;;;;;4919622;29;20056;-84
2023/12/11 02:31:49;;;;;;;3.47;1.33;;;;;;;;;;4924280;29;20020;-84
2023/12/11 02:34:14;;;;;;;2.33;1.33;;;;;;;;;;4898183;29;20036;-83
2023/12/11 02:36:39;;;;;;;3.97;1.30;;;;;;;;;;4907117;29;20027;-84
2023/12/11 02:39:04;;;;;;;2.93;1.23;;;;;;;;;;4901857;29;20259;-84
2023/12/11 02:41:30;;;;;;;2.37;1.20;;;;;;;;;;4897434;29;20272;-84
2023/12/11 02:43:55;;;;;;;3.37;1.27;;;;;;;;;;4908561;29;20675;-84
2023/12/11 02:46:20;;;;;;;2.03;1.02;;;;;;;;;;4906763;29;20707;-84
2023/12/11 02:48:45;;;;;;;3.33;1.17;;;;;;;;;;4914113;29;20111;-84
2023/12/11 02:51:11;;;;;;;1.07;0.90;;;;;;;;;;4918023;29;20060;-84
2023/12/11 02:53:36;;;;;;;1.17;0.97;;;;;;;;;;4914053;29;20280;-84
2023/12/11 02:56:01;;;;;;;1.47;0.90;;;;;;;;;;4917839;29;20354;-84
2023/12/11 02:58:27;;;;;;;1.48;0.90;;;;;;;;;;4907854;29;20315;-84
2023/12/11 03:00:52;;;;;;;2.60;1.10;;;;;;;;;;4910131;29;20023;-84
2023/12/11 03:03:17;;;;;;;1.23;0.77;;;;;;;;;;4913154;29;20084;-84
2023/12/11 03:05:43;;;;;;;1.87;0.97;;;;;;;;;;4929309;29;20024;-84
2023/12/11 03:08:08;;;;;;;2.33;1.08;;;;;;;;;;4909240;29;20279;-84
2023/12/11 03:10:33;;;;;;;1.40;0.90;;;;;;;;;;4927012;29;20079;-84
2023/12/11 03:12:58;;;;;;;1.80;0.87;;;;;;;;;;4918645;29;20330;-84
2023/12/11 03:15:24;;;;;;;1.58;1.13;;;;;;;;;;4923148;29;20275;-84
2023/12/11 03:17:49;;;;;;;1.17;0.80;;;;;;;;;;4911465;29;20473;-84
2023/12/11 03:20:14;;;;;;;1.20;0.90;;;;;;;;;;4903184;29;20029;-84
2023/12/11 03:22:40;;;;;;;1.52;1.17;;;;;;;;;;4930279;29;20120;-84
2023/12/11 03:25:05;;;;;;;3.72;1.73;;;;;;;;;;4927719;29;20024;-84
2023/12/11 03:27:30;;;;;;;2.58;1.60;;;;;;;;;;4917931;29;20075;-83
2023/12/11 03:29:56;;;;;;;2.13;1.55;;;;;;;;;;4907134;29;20358;-84
2023/12/11 03:32:21;;;;;;;2.60;1.50;;;;;;;;;;4912886;29;20035;-84
2023/12/11 03:34:46;;;;;;;1.77;1.55;;;;;;;;;;4914121;29;20377;-84
2023/12/11 03:37:12;;;;;;;1.97;1.50;;;;;;;;;;4925997;29;20016;-84
2023/12/11 03:39:37;;;;;;;2.35;1.75;;;;;;;;;;4925313;29;20763;-84
2023/12/11 03:42:03;;;;;;;2.80;2.05;;;;;;;;;;4909645;29;20028;-84
2023/12/11 03:44:28;;;;;;;2.65;1.95;;;;;;;;;;4911082;29;20028;-84
2023/12/11 03:46:53;;;;;;;3.88;1.73;;;;;;;;;;4907366;29;20034;-84
2023/12/11 03:49:20;;;;;;;5.13;1.73;;;;;;;;;;4907229;29;20414;-84
2023/12/11 03:51:45;;;;;;;2.78;1.92;;;;;;;;;;4927468;29;20270;-84
2023/12/11 03:54:10;;;;;;;5.20;1.50;;;;;;;;;;4909523;29;20024;-84
2023/12/11 03:56:36;;;;;;;1.77;1.58;;;;;;;;;;4913520;29;20032;-84
2023/12/11 03:59:01;;;;;;;3.47;1.10;;;;;;;;;;4911892;29;20020;-84
2023/12/11 04:01:26;;;;;;;5.33;1.60;;;;;;;;;;4901885;29;20024;-84
2023/12/11 04:03:51;;;;;;;6.93;1.40;;;;;;;;;;4917369;29;20305;-84
2023/12/11 04:06:17;;;;;;;2.60;1.10;;;;;;;;;;4911289;29;20268;-84
2023/12/11 04:08:42;;;;;;;0.60;0.60;;;;;;;;;;4930110;29;20271;-84
2023/12/11 04:11:08;;;;;;;2.00;0.80;;;;;;;;;;4912494;29;20343;-84
2023/12/11 04:13:33;;;;;;;4.15;0.90;;;;;;;;;;4920714;29;20539;-84
2023/12/11 04:15:58;;;;;;;2.90;0.90;;;;;;;;;;4906471;29;20032;-84
2023/12/11 04:18:24;;;;;;;4.03;0.60;;;;;;;;;;4906904;29;20028;-84
2023/12/11 04:20:49;;;;;;;4.17;0.83;;;;;;;;;;4904965;29;20031;-84
2023/12/11 04:23:14;;;;;;;2.25;0.47;;;;;;;;;;4906570;29;20338;-84
2023/12/11 04:25:40;;;;;;;1.47;0.57;;;;;;;;;;4899070;29;20500;-84
2023/12/11 04:28:05;;;;;;;2.83;0.90;;;;;;;;;;4926996;29;20322;-83
2023/12/11 04:30:30;;;;;;;1.17;0.70;;;;;;;;;;4914236;29;20297;-84
2023/12/11 04:32:55;;;;;;;2.63;1.00;;;;;;;;;;4931730;29;20306;-84
2023/12/11 04:35:20;;;;;;;4.33;0.90;;;;;;;;;;4915430;29;20377;-84
2023/12/11 04:37:46;;;;;;;1.00;0.70;;;;;;;;;;4931646;29;20282;-83
2023/12/11 04:40:11;;;;;;;3.40;1.00;;;;;;;;;;4916927;29;20270;-83
2023/12/11 04:42:36;;;;;;;1.42;1.10;;;;;;;;;;4914475;29;20035;-83
2023/12/11 04:45:02;;;;;;;3.00;1.10;;;;;;;;;;4905335;29;20029;-84
2023/12/11 04:47:27;;;;;;;2.78;1.38;;;;;;;;;;4899016;29;20752;-84
2023/12/11 04:49:52;;;;;;;4.50;1.40;;;;;;;;;;4906564;29;20033;-84
2023/12/11 04:52:17;;;;;;;1.50;1.00;;;;;;;;;;4914381;29;20752;-83
2023/12/11 04:54:43;;;;;;;1.20;1.02;;;;;;;;;;4913480;29;20263;-84
2023/12/11 04:57:08;;;;;;;1.23;0.80;;;;;;;;;;4913877;29;20532;-85
2023/12/11 04:59:33;;;;;;;2.70;1.07;;;;;;;;;;4916785;29;20271;-84
2023/12/11 05:01:58;;;;;;;2.40;1.20;;;;;;;;;;4928570;29;20294;-83
2023/12/11 05:04:23;;;;;;;1.97;1.23;;;;;;;;;;4916301;29;20267;-82
2023/12/11 05:06:49;;;;;;;2.20;0.90;;;;;;;;;;4910200;29;20283;-83
2023/12/11 05:09:14;;;;;;;2.23;0.90;;;;;;;;;;4898310;29;20283;-83
2023/12/11 05:11:39;;;;;;;2.73;1.07;;;;;;;;;;4898902;29;20310;-83
2023/12/11 05:14:05;;;;;;;3.47;1.10;;;;;;;;;;4898701;29;20327;-83
2023/12/11 05:16:30;;;;;;;2.17;0.98;;;;;;;;;;4898804;29;20080;-83
2023/12/11 05:18:55;;;;;;;1.90;0.70;;;;;;;;;;4897354;29;20032;-83
2023/12/11 05:21:22;;;;;;;2.60;1.03;;;;;;;;;;4897343;29;20016;-83
2023/12/11 05:23:47;;;;;;;2.47;1.05;;;;;;;;;;4898477;29;20248;-83
2023/12/11 05:26:17;;;;;;;1.58;0.70;;;;;;;;;;4913039;29;20119;-83
2023/12/11 05:28:43;;;;;;;2.00;0.77;;;;;;;;;;4897077;29;20044;-83
2023/12/11 05:31:08;;;;;;;1.57;0.80;;;;;;;;;;4898368;29;20036;-83
2023/12/11 05:33:33;;;;;;;5.43;0.80;;;;;;;;;;4898383;29;20270;-82
2023/12/11 05:35:58;;;;;;;4.20;0.97;;;;;;;;;;4898309;29;20263;-83
2023/12/11 05:38:24;;;;;;;4.13;0.80;;;;;;;;;;4912734;29;20314;-83
2023/12/11 05:40:49;;;;;;;5.45;0.90;;;;;;;;;;4897039;29;20017;-83
2023/12/11 05:43:15;;;;;;;6.78;0.93;;;;;;;;;;4898321;29;20024;-83
2023/12/11 05:45:40;;;;;;;4.65;1.10;;;;;;;;;;4897058;29;20028;-83
2023/12/11 05:48:05;;;;;;;3.60;1.05;;;;;;;;;;4898262;29;20152;-83
2023/12/11 05:50:31;;;;;;;2.53;0.93;;;;;;;;;;4898279;29;20386;-83
2023/12/11 05:52:56;;;;;;;4.13;1.10;;;;;;;;;;4898429;29;20481;-83
2023/12/11 05:55:22;;;;;;;1.27;0.83;;;;;;;;;;4912662;29;20029;-83
2023/12/11 05:57:47;;;;;;;3.07;0.80;;;;;;;;;;4896817;29;20276;-83
2023/12/11 06:00:12;;;;;;;4.23;1.07;;;;;;;;;;4896878;29;20254;-83
2023/12/11 06:02:39;;;;;;;3.20;1.13;;;;;;;;;;4898205;29;20256;-83
2023/12/11 06:05:05;;;;;;;7.32;0.90;;;;;;;;;;4896892;29;20029;-83
2023/12/11 06:07:30;;;;;;;1.15;0.60;;;;;;;;;;4896772;29;20386;-83
2023/12/11 06:09:55;;;;;;;1.77;0.90;;;;;;;;;;4898060;29;20025;-83
2023/12/11 06:12:21;;;;;;;1.10;0.70;;;;;;;;;;4912491;29;20270;-83
2023/12/11 06:14:46;;;;;;;6.30;1.10;;;;;;;;;;4912515;29;20363;-83
2023/12/11 06:17:11;;;;;;;3.22;1.08;;;;;;;;;;4897909;29;20500;-83
2023/12/11 06:19:39;;;;;;;2.83;1.10;;;;;;;;;;4912445;29;20021;-83
2023/12/11 06:22:05;;;;;;;2.60;1.45;;;;;;;;;;4897832;29;20256;-83
2023/12/11 06:24:30;;;;;;;3.50;1.50;;;;;;;;;;4896726;29;20120;-83
2023/12/11 06:26:55;;;;;;;3.43;1.47;;;;;;;;;;4899328;29;20278;-83
2023/12/11 06:29:20;;;;;;;3.30;1.30;;;;;;;;;;4900191;29;20303;-83
2023/12/11 06:31:45;;;;;;;1.53;1.10;;;;;;;;;;4900271;29;20481;-83
2023/12/11 06:34:11;;;;;;;5.37;1.50;;;;;;;;;;4901478;29;20276;-83
2023/12/11 06:36:36;;;;;;;4.83;1.10;;;;;;;;;;4901637;29;20362;-83
2023/12/11 06:39:01;;;;;;;5.27;1.47;;;;;;;;;;4901602;29;20335;-83
2023/12/11 06:41:26;;;;;;;5.53;1.50;;;;;;;;;;4915856;29;20807;-83
2023/12/11 06:43:52;;;;;;;6.28;1.40;;;;;;;;;;4900113;29;20076;-83
2023/12/11 06:46:18;;;;;;;2.30;1.25;;;;;;;;;;4910813;29;20024;-83
2023/12/11 06:48:43;;;;;;;3.45;1.42;;;;;;;;;;4918884;29;20020;-83
2023/12/11 06:51:08;;;;;;;3.72;1.50;;;;;;;;;;4934647;29;20076;-83
2023/12/11 06:53:34;;;;;;;7.27;1.10;;;;;;;;;;4934656;29;20020;-83
2023/12/11 06:55:59;;;;;;;6.82;1.75;;;;;;;;;;4919964;29;20251;-83
2023/12/11 06:58:24;;;;;;;4.57;1.70;;;;;;;;;;4919884;29;20031;-83
2023/12/11 07:00:50;;;;;;;3.83;1.20;;;;;;;;;;4918657;29;20250;-83
2023/12/11 07:03:15;;;;;;;2.42;1.30;;;;;;;;;;4919811;29;20532;-83
2023/12/11 07:05:42;;;;;;;2.40;1.23;;;;;;;;;;4919867;29;20024;-83
2023/12/11 07:08:07;;;;;;;4.65;1.25;;;;;;;;;;4920016;29;20026;-83
2023/12/11 07:10:32;;;;;;;4.60;1.48;;;;;;;;;;4934340;29;20024;-83
2023/12/11 07:12:57;;;;;;;9.47;1.27;;;;;;;;;;4934284;29;20087;-83
2023/12/11 07:15:23;;;;;;;1.33;1.20;;;;;;;;;;4919649;29;20250;-83
2023/12/11 07:17:48;;;;;;;4.55;1.45;;;;;;;;;;4934116;29;20278;-83
2023/12/11 07:20:13;;;;;;;5.70;1.27;;;;;;;;;;4934169;29;20027;-83
2023/12/11 07:22:38;;;;;;;7.90;1.73;;;;;;;;;;4919502;29;20342;-83
2023/12/11 07:25:04;;;;;;;3.37;1.30;;;;;;;;;;4919536;29;20026;-83
2023/12/11 07:27:30;;;;;;;3.30;1.40;;;;;;;;;;4933907;29;20254;-82
2023/12/11 07:29:55;;;;;;;3.67;1.33;;;;;;;;;;4919468;29;20039;-83
2023/12/11 07:32:20;;;;;;;1.87;1.20;;;;;;;;;;4919350;29;20036;-83
2023/12/11 07:34:46;;;;;;;3.13;1.20;;;;;;;;;;4933894;29;20306;-83
2023/12/11 07:37:11;;;;;;;2.28;1.30;;;;;;;;;;4919066;29;20283;-83
2023/12/11 07:39:36;;;;;;;3.47;1.73;;;;;;;;;;4918404;29;20016;-83
2023/12/11 07:42:02;;;;;;;2.67;1.00;;;;;;;;;;4917895;29;20115;-83
2023/12/11 07:44:27;;;;;;;3.42;1.27;;;;;;;;;;4919146;29;20330;-83
2023/12/11 07:46:53;;;;;;;2.20;1.10;;;;;;;;;;4919099;29;20469;-83
2023/12/11 07:49:18;;;;;;;4.40;1.20;;;;;;;;;;4933645;29;20032;-83
2023/12/11 07:51:43;;;;;;;2.33;1.02;;;;;;;;;;4917798;29;20265;-83
2023/12/11 07:54:09;;;;;;;5.30;1.20;;;;;;;;;;4933576;29;20024;-83
2023/12/11 07:56:36;;;;;;;2.20;1.05;;;;;;;;;;4933434;29;20366;-83
2023/12/11 07:59:02;;;;;;;2.17;0.88;;;;;;;;;;4918917;29;20481;-83
2023/12/11 08:01:31;;;;;;;4.15;1.27;;;;;;;;;;4918860;29;20109;-83
2023/12/11 08:03:57;;;;;;;4.88;1.10;;;;;;;;;;4918793;29;20016;-83
2023/12/11 08:06:23;;;;;;;4.35;1.05;;;;;;;;;;4917492;29;20039;-83
2023/12/11 08:08:48;;;;;;;4.53;1.20;;;;;;;;;;4918753;29;20051;-83
2023/12/11 08:11:29;;;;;;;3.23;1.00;;;;;;;;;;4918652;29;20032;-83
2023/12/11 08:13:54;;;;;;;4.00;1.10;;;;;;;;;;4933224;29;20259;-83
2023/12/11 08:16:20;;;;;;;3.78;0.82;;;;;;;;;;4918482;29;20389;-83
2023/12/11 08:18:45;;;;;;;5.60;0.90;;;;;;;;;;4917282;29;20467;-83
2023/12/11 08:21:11;;;;;;;7.43;0.98;;;;;;;;;;4917253;29;20031;-83
2023/12/11 08:23:40;;;;;;;4.32;1.08;;;;;;;;;;4932925;29;20381;-83
2023/12/11 08:26:05;;;;;;;1.58;0.80;;;;;;;;;;4917092;29;20016;-83
2023/12/11 08:28:30;;;;;;;4.30;1.40;;;;;;;;;;4918200;29;20094;-83
2023/12/11 08:30:56;;;;;;;3.03;0.80;;;;;;;;;;4917025;29;20115;-83
2023/12/11 08:33:21;;;;;;;2.13;1.02;;;;;;;;;;4917008;29;20304;-83
2023/12/11 08:35:47;;;;;;;5.28;1.05;;;;;;;;;;4918192;29;20028;-83
2023/12/11 08:38:13;;;;;;;2.17;0.70;;;;;;;;;;4918093;29;20020;-83
2023/12/11 08:40:39;;;;;;;5.70;1.13;;;;;;;;;;4932704;29;20656;-83
2023/12/11 08:43:04;;;;;;;2.05;0.90;;;;;;;;;;4932882;29;20084;-83
2023/12/11 08:45:29;;;;;;;1.63;0.80;;;;;;;;;;4918004;29;20019;-83
2023/12/11 08:47:55;;;;;;;7.18;1.58;;;;;;;;;;4917994;29;20263;-83
2023/12/11 08:50:20;;;;;;;7.77;1.67;;;;;;;;;;4917677;29;20092;-83
2023/12/11 08:52:45;;;;;;;7.77;2.27;;;;;;;;;;4917985;29;20251;-83
2023/12/11 08:55:11;;;;;;;5.72;1.60;;;;;;;;;;4932379;29;20601;-83
2023/12/11 08:57:36;;;;;;;4.40;1.43;;;;;;;;;;4917858;29;20103;-83
2023/12/11 09:00:03;;;;;;;3.40;1.20;;;;;;;;;;4918031;29;20270;-83
2023/12/11 09:02:28;;;;;;;5.03;1.20;;;;;;;;;;4916519;29;20535;-83
2023/12/11 09:04:53;;;;;;;6.03;1.73;;;;;;;;;;4916501;29;20119;-83
2023/12/11 09:07:19;;;;;;;5.60;1.17;;;;;;;;;;4932295;29;20282;-83
2023/12/11 09:09:44;;;;;;;2.78;0.90;;;;;;;;;;4917554;29;20258;-83
2023/12/11 09:12:09;;;;;;;2.97;0.85;;;;;;;;;;4916336;29;20036;-83
2023/12/11 09:14:34;;;;;;;1.93;0.80;;;;;;;;;;4917583;29;20031;-83
2023/12/11 09:17:00;;;;;;;5.10;1.23;;;;;;;;;;4916200;29;20278;-83
2023/12/11 09:19:25;;;;;;;6.97;1.10;;;;;;;;;;4932026;29;20267;-83
2023/12/11 09:21:51;;;;;;;4.68;0.73;;;;;;;;;;4917337;29;20016;-83
2023/12/11 09:24:16;;;;;;;6.30;1.10;;;;;;;;;;4917461;29;20020;-83
2023/12/11 09:26:41;;;;;;;4.13;1.33;;;;;;;;;;4916187;29;20040;-83
2023/12/11 09:29:06;;;;;;;5.17;1.20;;;;;;;;;;4917230;29;20346;-83
2023/12/11 09:31:32;;;;;;;4.57;1.70;;;;;;;;;;4931830;29;20267;-83
2023/12/11 09:33:57;;;;;;;7.28;1.60;;;;;;;;;;4917316;29;20263;-83
2023/12/11 09:36:22;;;;;;;9.70;1.60;;;;;;;;;;4915980;29;20036;-83
2023/12/11 09:38:47;;;;;;;11.10;1.77;;;;;;;;;;4917251;29;20250;-83
2023/12/11 09:41:13;;;;;;;9.70;1.33;;;;;;;;;;4917117;29;20255;-83
2023/12/11 09:43:38;;;;;;;6.38;1.48;;;;;;;;;;4931749;29;20017;-83
2023/12/11 09:46:06;;;;;;;6.95;1.25;;;;;;;;;;4917158;29;20466;-83
2023/12/11 09:48:31;;;;;;;10.73;1.83;;;;;;;;;;4931713;29;20075;-83
2023/12/11 09:50:56;;;;;;;7.78;1.60;;;;;;;;;;4917109;29;20473;-83
2023/12/11 09:53:21;;;;;;;11.88;1.73;;;;;;;;;;4931601;29;20020;-83
2023/12/11 09:55:48;;;;;;;7.63;1.73;;;;;;;;;;4917037;29;20063;-83
2023/12/11 09:58:13;;;;;;;9.07;1.60;;;;;;;;;;4916989;29;20728;-83
2023/12/11 10:00:40;;;;;;;8.15;1.40;;;;;;;;;;4915771;29;20111;-83
2023/12/11 10:03:05;;;;;;;7.97;1.33;;;;;;;;;;4919326;29;20079;-83
2023/12/11 10:05:33;;;;;;;7.05;1.33;;;;;;;;;;4935460;29;20020;-83
2023/12/11 10:08:00;;;;;;;6.72;1.77;;;;;;;;;;4935453;29;20122;-83
2023/12/11 10:10:27;;;;;;;4.35;1.10;;;;;;;;;;4935465;29;20489;-83
2023/12/11 10:12:55;;;;;;;9.18;1.30;;;;;;;;;;4920761;29;20425;-83
2023/12/11 10:15:21;;;;;;;11.63;2.03;;;;;;;;;;4920755;29;20451;-83
2023/12/11 10:17:58;;;;;;;6.82;1.63;;;;;;;;;;4920580;29;20028;-83
2023/12/11 10:20:23;;;;;;;15.32;2.22;;;;;;;;;;4935254;29;20020;-82
2023/12/11 10:22:49;;;;;;;15.15;1.65;;;;;;;;;;4919293;29;20385;-82
2023/12/11 10:25:22;;;;;;;13.07;2.00;;;;;;;;;;4935173;29;20095;-82
2023/12/11 10:27:47;;;;;;;15.52;2.20;;;;;;;;;;4920418;29;20639;-82
2023/12/11 10:30:14;;;;;;;16.57;2.03;;;;;;;;;;4920466;29;20024;-82
2023/12/11 10:32:39;;;;;;;11.73;1.95;;;;;;;;;;4919185;29;20250;-82
2023/12/11 10:35:05;;;;;;;14.80;2.75;;;;;;;;;;4920357;29;20031;-82
2023/12/11 10:37:31;;;;;;;15.57;2.72;;;;;;;;;;4935016;29;20028;-82
2023/12/11 10:39:56;;;;;;;10.77;2.13;;;;;;;;;;4920287;29;20039;-82
2023/12/11 10:42:23;;;;;;;13.90;2.45;;;;;;;;;;4920235;29;20024;-82
2023/12/11 10:44:48;;;;;;;11.95;1.75;;;;;;;;;;4920162;29;20023;-82
2023/12/11 10:47:13;;;;;;;10.10;2.42;;;;;;;;;;4920189;29;20023;-83
2023/12/11 10:49:42;;;;;;;13.20;2.08;;;;;;;;;;4918873;29;20119;-82
2023/12/11 10:52:07;;;;;;;14.10;1.77;;;;;;;;;;4920113;29;20023;-82
2023/12/11 10:54:37;;;;;;;12.30;1.93;;;;;;;;;;4920077;29;20095;-82
2023/12/11 10:57:05;;;;;;;22.95;2.80;;;;;;;;;;4934574;29;20286;-82
2023/12/11 10:59:31;;;;;;;14.35;2.30;;;;;;;;;;4919970;29;20027;-83
2023/12/11 11:01:57;;;;;;;14.60;2.20;;;;;;;;;;4920161;29;20028;-83
2023/12/11 11:04:23;;;;;;;11.80;2.03;;;;;;;;;;4919854;29;20366;-82
2023/12/11 11:06:53;;;;;;;21.90;2.65;;;;;;;;;;4919839;29;20107;-83
2023/12/11 11:09:38;;;;;;;12.15;2.20;;;;;;;;;;4918544;29;20028;-83
2023/12/11 11:12:07;;;;;;;11.73;1.95;;;;;;;;;;4912440;29;20464;-82
2023/12/11 11:14:44;;;;;;;8.20;1.55;;;;;;;;;;4925523;29;20478;-82
2023/12/11 11:17:11;;;;;;;10.18;2.00;;;;;;;;;;4900724;29;20047;-83
2023/12/11 11:19:36;;;;;;;15.60;1.98;;;;;;;;;;4915228;29;20072;-82
2023/12/11 11:22:04;;;;;;;12.48;1.92;;;;;;;;;;4900595;29;20021;-82
2023/12/11 11:24:30;;;;;;;10.43;2.35;;;;;;;;;;4900636;29;20123;-82
2023/12/11 11:26:56;;;;;;;16.10;1.88;;;;;;;;;;4915158;29;20107;-82
2023/12/11 11:29:37;;;;;;;19.90;2.33;;;;;;;;;;4914956;29;20060;-82
2023/12/11 11:32:03;;;;;;;12.23;1.75;;;;;;;;;;4915049;29;20079;-82
2023/12/11 11:34:40;;;;;;;13.90;2.25;;;;;;;;;;4914945;29;20123;-82
2023/12/11 11:37:34;;;;;;;11.23;2.40;;;;;;;;;;4900318;29;20024;-82
2023/12/11 11:40:04;;;;;;;12.82;2.38;;;;;;;;;;4914294;29;20025;-82
2023/12/11 11:42:34;;;;;;;6.60;1.23;;;;;;;;;;4900278;29;20083;-82
2023/12/11 11:45:00;;;;;;;5.20;1.75;;;;;;;;;;4900252;29;20044;-82
2023/12/11 11:47:26;;;;;;;11.77;1.83;;;;;;;;;;4914752;29;20029;-82
2023/12/11 11:49:51;;;;;;;12.63;2.05;;;;;;;;;;4900175;29;20027;-82
2023/12/11 11:52:27;;;;;;;13.90;2.08;;;;;;;;;;4900126;29;20033;-82
2023/12/11 11:54:55;;;;;;;15.20;2.30;;;;;;;;;;4900110;29;20024;-82
2023/12/11 11:57:25;;;;;;;8.10;1.58;;;;;;;;;;4899985;29;20433;-82
2023/12/11 11:59:50;;;;;;;15.75;2.10;;;;;;;;;;4914487;29;20031;-82
2023/12/11 12:02:23;;;;;;;14.43;1.90;;;;;;;;;;4900017;29;20028;-82
2023/12/11 12:04:48;;;;;;;14.80;2.05;;;;;;;;;;4899937;29;20251;-82
2023/12/11 12:07:13;;;;;;;13.23;2.00;;;;;;;;;;4914429;29;20025;-82
2023/12/11 12:09:39;;;;;;;11.80;2.03;;;;;;;;;;4899895;29;20374;-82
2023/12/11 12:12:04;;;;;;;15.15;1.88;;;;;;;;;;4898497;29;20485;-82
2023/12/11 12:14:29;;;;;;;11.20;2.40;;;;;;;;;;4899818;29;20060;-82
2023/12/11 12:16:55;;;;;;;12.88;1.80;;;;;;;;;;4899585;29;20060;-82
2023/12/11 12:19:31;;;;;;;8.93;1.97;;;;;;;;;;4899715;29;20020;-82
2023/12/11 12:21:56;;;;;;;10.93;1.70;;;;;;;;;;4914071;29;20740;-82
2023/12/11 12:24:21;;;;;;;9.80;1.63;;;;;;;;;;4898963;29;20031;-82
2023/12/11 12:27:07;;;;;;;11.07;1.73;;;;;;;;;;4899625;29;20048;-82
2023/12/11 12:29:33;;;;;;;13.13;1.75;;;;;;;;;;4913803;29;20422;-82
2023/12/11 12:31:59;;;;;;;14.43;1.73;;;;;;;;;;4913888;29;20024;-82
2023/12/11 12:34:26;;;;;;;13.60;2.08;;;;;;;;;;4913852;29;20029;-82
2023/12/11 12:36:53;;;;;;;15.25;2.10;;;;;;;;;;4899244;29;20028;-82
2023/12/11 12:39:19;;;;;;;10.88;2.00;;;;;;;;;;4913741;29;20048;-82
2023/12/11 12:41:47;;;;;;;11.80;2.08;;;;;;;;;;4899323;29;20510;-82
2023/12/11 12:44:12;;;;;;;15.35;2.25;;;;;;;;;;4899321;29;20112;-82
2023/12/11 12:46:41;;;;;;;18.20;2.13;;;;;;;;;;4899156;29;20429;-82
2023/12/11 12:49:10;;;;;;;7.10;1.58;;;;;;;;;;4913591;29;20262;-82
2023/12/11 12:51:52;;;;;;;14.13;2.13;;;;;;;;;;4899089;29;20103;-83
2023/12/11 12:54:17;;;;;;;11.38;1.92;;;;;;;;;;4899042;29;20028;-82
2023/12/11 12:56:56;;;;;;;10.43;1.95;;;;;;;;;;4898963;29;20036;-82
2023/12/11 12:59:22;;;;;;;12.13;1.70;;;;;;;;;;4897678;29;20020;-82
2023/12/11 13:01:48;;;;;;;11.27;2.33;;;;;;;;;;4898875;29;20027;-82
2023/12/11 13:04:13;;;;;;;12.95;2.25;;;;;;;;;;4898880;29;20016;-82
2023/12/11 13:06:39;;;;;;;10.47;1.83;;;;;;;;;;4898840;29;20033;-82
2023/12/11 13:09:05;;;;;;;10.65;2.08;;;;;;;;;;4898871;29;20251;-82
2023/12/11 13:11:46;;;;;;;14.55;2.42;;;;;;;;;;4913266;29;20021;-82
2023/12/11 13:14:12;;;;;;;10.05;2.03;;;;;;;;;;4897469;29;20392;-82
2023/12/11 13:16:47;;;;;;;13.45;2.30;;;;;;;;;;4898598;29;20027;-82
2023/12/11 13:19:12;;;;;;;14.18;1.67;;;;;;;;;;4898686;29;20048;-82
2023/12/11 13:21:38;;;;;;;14.05;2.08;;;;;;;;;;4913017;29;20060;-82
2023/12/11 13:24:06;;;;;;;8.47;1.80;;;;;;;;;;4897355;29;20389;-82
2023/12/11 13:26:32;;;;;;;13.05;1.77;;;;;;;;;;4897270;29;20265;-82
2023/12/11 13:28:57;;;;;;;12.70;2.03;;;;;;;;;;4898288;29;20049;-82
2023/12/11 13:31:24;;;;;;;15.82;2.17;;;;;;;;;;4912950;29;20346;-82
2023/12/11 13:33:49;;;;;;;6.75;1.40;;;;;;;;;;4913007;29;20393;-82
2023/12/11 13:36:14;;;;;;;15.43;2.10;;;;;;;;;;4897546;29;20028;-82
2023/12/11 13:38:41;;;;;;;10.75;1.92;;;;;;;;;;4897070;29;20117;-83
2023/12/11 13:41:06;;;;;;;11.77;1.90;;;;;;;;;;4912835;29;20021;-82
2023/12/11 13:43:32;;;;;;;14.32;2.30;;;;;;;;;;4897004;29;20036;-82
2023/12/11 13:45:57;;;;;;;9.17;2.07;;;;;;;;;;4912791;29;20156;-82
2023/12/11 13:48:23;;;;;;;16.15;2.13;;;;;;;;;;4898259;29;20256;-82
2023/12/11 13:50:49;;;;;;;13.68;2.15;;;;;;;;;;4898274;29;20478;-82
2023/12/11 13:53:14;;;;;;;11.98;2.55;;;;;;;;;;4912784;29;20029;-82
2023/12/11 13:55:39;;;;;;;11.40;2.13;;;;;;;;;;4898192;29;20029;-82
2023/12/11 13:58:04;;;;;;;11.40;2.20;;;;;;;;;;4912542;29;20029;-82
2023/12/11 14:00:30;;;;;;;16.45;2.00;;;;;;;;;;4912631;29;20247;-82
2023/12/11 14:02:55;;;;;;;11.30;2.15;;;;;;;;;;4898225;29;20036;-82
2023/12/11 14:05:20;;;;;;;15.30;1.98;;;;;;;;;;4898162;29;20028;-82
2023/12/11 14:07:46;;;;;;;10.97;1.60;;;;;;;;;;4912558;29;20040;-82
2023/12/11 14:10:11;;;;;;;9.33;1.63;;;;;;;;;;4912589;29;20314;-82
2023/12/11 14:12:37;;;;;;;12.85;1.75;;;;;;;;;;4898288;29;20263;-82
2023/12/11 14:15:04;;;;;;;16.48;2.75;;;;;;;;;;4898021;29;20028;-82
2023/12/11 14:17:30;;;;;;;14.10;1.63;;;;;;;;;;4912416;29;20084;-82
2023/12/11 14:19:55;;;;;;;14.02;2.35;;;;;;;;;;4897997;29;20104;-82
2023/12/11 14:22:20;;;;;;;11.97;2.10;;;;;;;;;;4898000;29;20028;-82
2023/12/11 14:24:45;;;;;;;13.33;1.50;;;;;;;;;;4897889;29;20477;-82
2023/12/11 14:27:12;;;;;;;9.95;2.22;;;;;;;;;;4897949;29;20262;-82
2023/12/11 14:29:38;;;;;;;8.43;1.52;;;;;;;;;;4912430;29;20157;-82
2023/12/11 14:32:03;;;;;;;7.00;1.33;;;;;;;;;;4897896;29;20087;-82
2023/12/11 14:34:28;;;;;;;6.03;1.85;;;;;;;;;;4896591;29;20123;-82